.
WxDataArchive / Data Records for 2012-12-09
2012-12-08 December 2012 2012-12-10

Data Records for Sunday, 09 December 2012

Time	Temp	Chill	HIndex	Humid	Dewpt	 Wind 	HiWind	WindDir	Rain 	Barom 
-----	----	-----	------	-----	-----	------	------	-------	-----	----- 
00:00	34.6	34.6	34.6	87	31.1	1	4	90	0.00	30.129 
00:05	34.6	34.6	34.6	87	31.1	1	6	90	0.00	30.129 
00:10	34.6	34.6	34.6	87	31.1	1	5	90	0.00	30.129 
00:15	34.6	34.6	34.6	87	31.1	2	7	90	0.00	30.121 
00:20	34.7	34.7	34.7	87	31.2	1	6	90	0.00	30.121 
00:25	34.7	34.7	34.7	87	31.2	3	7	112	0.00	30.121 
00:30	34.7	31.2	34.7	87	31.2	4	10	112	0.00	30.119 
00:35	34.7	34.7	34.7	86	30.9	3	10	90	0.00	30.119 
00:40	34.7	34.7	34.7	86	30.9	3	12	90	0.00	30.119 
00:45	34.7	34.7	34.7	86	30.9	3	7	90	0.00	30.121 
00:50	34.7	31.2	34.7	86	30.9	4	9	90	0.00	30.121 
00:55	34.7	34.7	34.7	87	31.2	2	11	112	0.00	30.121 
01:00	34.7	34.7	34.7	87	31.2	3	10	112	0.00	30.120 
01:05	34.7	34.7	34.7	87	31.2	2	7	112	0.00	30.120 
01:10	34.7	34.7	34.7	87	31.2	3	7	90	0.00	30.120 
01:15	34.7	34.7	34.7	87	31.2	3	11	90	0.00	30.121 
01:20	34.6	34.6	34.6	87	31.1	3	7	90	0.00	30.121 
01:25	34.6	34.6	34.6	87	31.1	1	6	90	0.00	30.121 
01:30	34.6	34.6	34.6	87	31.1	1	6	90	0.00	30.117 
01:35	34.6	34.6	34.6	88	31.4	1	4	90	0.00	30.117 
01:40	34.6	34.6	34.6	88	31.4	2	6	90	0.00	30.117 
01:45	34.6	34.6	34.6	88	31.4	2	5	90	0.00	30.110 
01:50	34.6	34.6	34.6	88	31.4	2	12	112	0.00	30.110 
01:55	34.6	34.6	34.6	88	31.4	3	8	90	0.00	30.110 
02:00	34.6	34.6	34.6	88	31.4	2	8	90	0.00	30.111 
02:05	34.6	34.6	34.6	88	31.4	2	13	112	0.00	30.111 
02:10	34.6	34.6	34.6	88	31.4	1	6	68	0.00	30.111 
02:15	34.6	34.6	34.6	88	31.4	3	8	90	0.00	30.110 
02:20	34.7	34.7	34.7	88	31.5	2	6	90	0.00	30.110 
02:25	34.7	34.7	34.7	88	31.5	2	6	90	0.00	30.110 
02:30	34.7	34.7	34.7	88	31.5	2	6	90	0.00	30.117 
02:35	34.7	34.7	34.7	88	31.5	3	8	90	0.00	30.117 
02:40	34.7	34.7	34.7	88	31.5	3	8	90	0.00	30.117 
02:45	34.7	34.7	34.7	88	31.5	3	8	90	0.00	30.114 
02:50	34.7	34.7	34.7	88	31.5	3	7	90	0.00	30.114 
02:55	34.7	31.2	34.7	88	31.5	4	11	90	0.00	30.114 
03:00	34.9	34.9	34.9	88	31.7	3	9	90	0.00	30.120 
03:05	34.9	31.4	34.9	88	31.7	4	8	90	0.00	30.120 
03:10	34.9	31.4	34.9	88	31.7	4	7	90	0.00	30.120 
03:15	34.9	34.9	34.9	88	31.7	3	6	90	0.00	30.117 
03:20	35.0	35.0	35.0	88	31.8	3	8	90	0.00	30.117 
03:25	35.0	31.5	35.0	88	31.8	4	10	90	0.00	30.117 
03:30	35.0	35.0	35.0	89	32.1	3	10	90	0.00	30.108 
03:35	35.0	30.6	35.0	88	31.8	5	10	90	0.00	30.108 
03:40	35.0	35.0	35.0	89	32.1	3	7	90	0.00	30.108 
03:45	35.0	35.0	35.0	89	32.1	2	6	112	0.00	30.109 
03:50	35.2	35.2	35.2	89	32.3	3	7	112	0.00	30.109 
03:55	35.2	31.8	35.2	89	32.3	4	7	90	0.00	30.109 
04:00	35.3	31.0	35.3	88	32.1	5	11	90	0.00	30.106 
04:05	35.3	35.3	35.3	88	32.1	3	6	90	0.00	30.106 
04:10	35.5	31.2	35.5	88	32.3	5	11	90	0.00	30.106 
04:15	35.5	31.2	35.5	88	32.3	5	13	90	0.00	30.106 
04:20	35.5	32.1	35.5	88	32.3	4	11	90	0.00	30.106 
04:25	35.6	35.6	35.6	88	32.4	3	9	90	0.00	30.106 
04:30	35.6	32.2	35.6	88	32.4	4	10	90	0.00	30.108 
04:35	35.6	32.2	35.6	88	32.4	4	10	90	0.00	30.108 
04:40	35.8	32.5	35.8	88	32.6	4	9	90	0.00	30.108 
04:45	35.8	32.5	35.8	88	32.6	4	7	90	0.00	30.093 
04:50	35.8	31.5	35.8	88	32.6	5	11	90	0.00	30.093 
04:55	35.9	31.7	35.9	88	32.7	5	13	90	0.00	30.093 
05:00	35.9	31.7	35.9	88	32.7	5	12	90	0.00	30.090 
05:05	35.9	31.7	35.9	88	32.7	5	10	90	0.00	30.090 
05:10	35.9	30.2	35.9	88	32.7	7	14	90	0.00	30.090 
05:15	35.9	31.7	35.9	88	32.7	5	14	90	0.00	30.078 
05:20	35.9	30.9	35.9	88	32.7	6	17	90	0.00	30.078 
05:25	35.9	30.9	35.9	88	32.7	6	13	90	0.00	30.078 
05:30	35.9	31.7	35.9	88	32.7	5	12	90	0.00	30.076 
05:35	35.9	31.7	35.9	88	32.7	5	14	90	0.00	30.076 
05:40	35.9	30.9	35.9	88	32.7	6	10	90	0.00	30.076 
05:45	35.9	30.9	35.9	88	32.7	6	13	90	0.00	30.076 
05:50	35.9	30.9	35.9	89	33.0	6	13	90	0.00	30.076 
05:55	36.0	31.0	36.0	89	33.1	6	13	90	0.00	30.076 
06:00	36.0	32.7	36.0	89	33.1	4	11	90	0.00	30.085 
06:05	36.0	31.8	36.0	89	33.1	5	9	90	0.00	30.085 
06:10	36.2	32.0	36.2	89	33.3	5	12	90	0.00	30.085 
06:15	36.2	31.2	36.2	89	33.3	6	12	90	0.00	30.087 
06:20	36.2	32.9	36.2	89	33.3	4	7	90	0.00	30.087 
06:25	36.3	36.3	36.3	90	33.7	3	6	90	0.00	30.087 
06:30	36.3	36.3	36.3	90	33.7	3	7	90	0.00	30.082 
06:35	36.3	36.3	36.3	90	33.7	3	5	90	0.00	30.082 
06:40	36.3	36.3	36.3	91	33.9	2	5	90	0.00	30.082 
06:45	36.3	33.0	36.3	91	33.9	4	9	90	0.00	30.087 
06:50	36.3	33.0	36.3	91	33.9	4	10	90	0.00	30.087 
06:55	36.5	36.5	36.5	91	34.1	3	5	90	0.00	30.087 
07:00	36.5	36.5	36.5	91	34.1	3	7	90	0.00	30.076 
07:05	36.5	36.5	36.5	91	34.1	3	10	90	0.00	30.076 
07:10	36.5	33.3	36.5	91	34.1	4	9	90	0.00	30.076 
07:15	36.5	33.3	36.5	92	34.4	4	10	90	0.00	30.071 
07:20	36.6	33.4	36.6	92	34.5	4	10	90	0.00	30.071 
07:25	36.6	32.5	36.6	91	34.2	5	11	90	0.00	30.071 
07:30	36.8	32.7	36.8	91	34.4	5	11	90	0.00	30.062 
07:35	36.8	33.6	36.8	91	34.4	4	10	90	0.00	30.062 
07:40	36.9	32.1	36.9	91	34.5	6	12	90	0.00	30.062 
07:45	36.9	32.1	36.9	90	34.2	6	11	90	0.00	30.054 
07:50	37.0	32.9	37.0	90	34.3	5	11	90	0.00	30.054 
07:55	37.0	32.2	37.0	90	34.3	6	12	90	0.01	30.054 
08:00	37.0	32.9	37.0	90	34.3	5	12	90	0.01	30.044 
08:05	37.0	32.9	37.0	90	34.3	5	12	90	0.00	30.044 
08:10	37.0	32.9	37.0	91	34.6	5	12	90	0.00	30.044 
08:15	37.0	32.9	37.0	91	34.6	5	13	90	0.01	30.032 
08:20	37.0	32.2	37.0	91	34.6	6	13	90	0.00	30.032 
08:25	37.0	32.2	37.0	91	34.6	6	12	90	0.00	30.032 
08:30	37.0	32.9	37.0	91	34.6	5	11	90	0.00	30.032 
08:35	37.0	32.2	37.0	91	34.6	6	14	90	0.01	30.032 
08:40	37.0	31.5	37.0	91	34.6	7	13	90	0.00	30.032 
08:45	37.0	33.9	37.0	91	34.6	4	10	90	0.00	30.031 
08:50	37.0	32.9	37.0	91	34.6	5	12	90	0.00	30.031 
08:55	37.0	32.9	37.0	91	34.6	5	10	90	0.00	30.031 
09:00	37.0	32.9	37.0	92	34.9	5	11	90	0.00	30.029 
09:05	37.0	32.9	37.0	92	34.9	5	10	90	0.01	30.029 
09:10	36.9	32.8	36.9	92	34.8	5	12	90	0.00	30.029 
09:15	36.9	32.8	36.9	92	34.8	5	13	90	0.00	30.015 
09:20	36.9	32.8	36.9	92	34.8	5	15	90	0.00	30.015 
09:25	36.9	32.8	36.9	92	34.8	5	12	90	0.01	30.015 
09:30	36.9	32.1	36.9	92	34.8	6	12	90	0.00	30.016 
09:35	36.9	32.8	36.9	92	34.8	5	11	90	0.00	30.016 
09:40	36.9	32.1	36.9	92	34.8	6	14	90	0.00	30.016 
09:45	36.9	32.8	36.9	92	34.8	5	11	90	0.00	30.011 
09:50	36.8	32.7	36.8	92	34.7	5	10	112	0.00	30.011 
09:55	36.8	32.7	36.8	92	34.7	5	13	90	0.01	30.011 
10:00	36.8	31.9	36.8	92	34.7	6	15	90	0.00	30.007 
10:05	36.8	31.3	36.8	92	34.7	7	18	90	0.00	30.007 
10:10	36.6	31.0	36.6	92	34.5	7	18	90	0.00	30.007 
10:15	36.6	32.5	36.6	92	34.5	5	11	90	0.00	30.002 
10:20	36.6	31.0	36.6	92	34.5	7	13	90	0.00	30.002 
10:25	36.6	32.5	36.6	92	34.5	5	10	90	0.01	30.002 
10:30	36.6	31.7	36.6	93	34.8	6	11	90	0.00	30.002 
10:35	36.5	31.6	36.5	93	34.7	6	12	90	0.00	30.002 
10:40	36.5	32.4	36.5	93	34.7	5	11	90	0.01	30.002 
10:45	36.5	31.6	36.5	93	34.7	6	13	90	0.01	29.995 
10:50	36.5	31.6	36.5	93	34.7	6	13	90	0.01	29.995 
10:55	36.5	32.4	36.5	93	34.7	5	12	90	0.01	29.995 
11:00	36.5	31.6	36.5	93	34.7	6	11	90	0.01	29.981 
11:05	36.5	32.4	36.5	94	34.9	5	10	90	0.01	29.981 
11:10	36.6	33.4	36.6	94	35.0	4	8	112	0.00	29.981 
11:15	36.6	32.5	36.6	94	35.0	5	13	90	0.00	29.967 
11:20	36.6	32.5	36.6	94	35.0	5	10	90	0.00	29.967 
11:25	36.6	33.4	36.6	94	35.0	4	10	90	0.00	29.967 
11:30	36.6	33.4	36.6	94	35.0	4	8	90	0.01	29.965 
11:35	36.6	33.4	36.6	94	35.0	4	9	90	0.00	29.965 
11:40	36.6	33.4	36.6	94	35.0	4	9	90	0.00	29.965 
11:45	36.6	32.5	36.6	94	35.0	5	11	90	0.00	29.961 
11:50	36.6	33.4	36.6	94	35.0	4	10	90	0.00	29.961 
11:55	36.6	32.5	36.6	94	35.0	5	9	90	0.00	29.961 
12:00	36.6	33.4	36.6	94	35.0	4	11	90	0.00	29.945 
12:05	36.6	32.5	36.6	94	35.0	5	11	90	0.01	29.945 
12:10	36.8	33.6	36.8	94	35.2	4	9	90	0.00	29.945 
12:15	36.8	33.6	36.8	94	35.2	4	7	90	0.00	29.933 
12:20	36.9	33.7	36.9	94	35.3	4	12	90	0.00	29.933 
12:25	37.0	32.9	37.0	94	35.4	5	10	90	0.00	29.933 
12:30	37.0	32.9	37.0	94	35.4	5	12	90	0.01	29.903 
12:35	37.0	33.9	37.0	94	35.4	4	9	90	0.00	29.903 
12:40	37.2	32.4	37.2	94	35.6	6	11	90	0.00	29.903 
12:45	37.2	32.4	37.2	94	35.6	6	14	112	0.00	29.885 
12:50	37.0	32.2	37.0	94	35.4	6	12	90	0.00	29.885 
12:55	37.2	33.2	37.2	94	35.6	5	11	90	0.00	29.885 
13:00	37.2	34.1	37.2	94	35.6	4	8	90	0.00	29.873 
13:05	37.2	33.2	37.2	94	35.6	5	10	90	0.00	29.873 
13:10	37.3	34.2	37.3	94	35.7	4	10	90	0.00	29.873 
13:15	37.3	37.3	37.3	94	35.7	3	9	68	0.00	29.870 
13:20	37.5	34.4	37.5	94	35.9	4	7	90	0.01	29.870 
13:25	37.5	34.4	37.5	94	35.9	4	7	90	0.00	29.870 
13:30	37.6	37.6	37.6	94	36.0	3	9	90	0.00	29.863 
13:35	37.6	34.5	37.6	94	36.0	4	9	90	0.00	29.863 
13:40	37.6	34.5	37.6	94	36.0	4	12	90	0.00	29.863 
13:45	37.8	34.8	37.8	94	36.2	4	7	90	0.00	29.849 
13:50	37.8	34.8	37.8	95	36.5	4	9	90	0.00	29.849 
13:55	37.9	37.9	37.9	95	36.6	3	9	90	0.00	29.849 
14:00	37.9	37.9	37.9	95	36.6	3	6	112	0.00	29.843 
14:05	38.0	38.0	38.0	95	36.7	2	5	112	0.00	29.843 
14:10	38.0	35.0	38.0	95	36.7	4	6	68	0.00	29.843 
14:15	38.0	35.0	38.0	95	36.7	4	9	90	0.00	29.838 
14:20	38.2	38.2	38.2	95	36.9	3	9	90	0.00	29.838 
14:25	38.2	35.2	38.2	95	36.9	4	7	90	0.00	29.838 
14:30	38.3	38.3	38.3	95	37.0	3	6	90	0.00	29.830 
14:35	38.5	38.5	38.5	95	37.2	3	7	90	0.02	29.830 
14:40	38.5	38.5	38.5	95	37.2	3	5	90	0.01	29.830 
14:45	38.5	38.5	38.5	95	37.2	2	5	90	0.00	29.831 
14:50	38.6	38.6	38.6	95	37.3	1	5	90	0.00	29.831 
14:55	38.6	38.6	38.6	95	37.3	3	6	90	0.00	29.831 
15:00	38.8	38.8	38.8	95	37.5	3	7	68	0.00	29.812 
15:05	38.8	38.8	38.8	95	37.5	3	6	112	0.00	29.812 
15:10	38.9	38.9	38.9	95	37.6	3	7	112	0.00	29.812 
15:15	38.9	38.9	38.9	95	37.6	3	5	68	0.00	29.806 
15:20	39.1	39.1	39.1	95	37.8	3	6	90	0.00	29.806 
15:25	39.1	39.1	39.1	95	37.8	3	6	68	0.00	29.806 
15:30	39.2	39.2	39.2	95	37.9	3	6	90	0.00	29.801 
15:35	39.2	39.2	39.2	95	37.9	3	6	90	0.00	29.801 
15:40	39.3	39.3	39.3	95	38.0	2	6	90	0.00	29.801 
15:45	39.3	39.3	39.3	96	38.3	2	5	90	0.00	29.802 
15:50	39.5	39.5	39.5	95	38.2	3	6	90	0.00	29.802 
15:55	39.5	39.5	39.5	96	38.5	3	5	90	0.00	29.802 
16:00	39.5	39.5	39.5	96	38.5	3	6	90	0.00	29.797 
16:05	39.6	39.6	39.6	96	38.6	2	5	90	0.00	29.797 
16:10	39.6	39.6	39.6	96	38.6	2	4	90	0.00	29.797 
16:15	39.8	39.8	39.8	96	38.8	2	6	90	0.00	29.793 
16:20	39.8	39.8	39.8	96	38.8	1	5	90	0.00	29.793 
16:25	39.8	39.8	39.8	96	38.8	1	4	90	0.00	29.793 
16:30	39.9	39.9	39.9	96	38.9	1	4	90	0.00	29.787 
16:35	39.9	39.9	39.9	96	38.9	2	6	90	0.00	29.787 
16:40	39.9	39.9	39.9	96	38.9	2	4	90	0.00	29.787 
16:45	40.1	40.1	40.1	96	39.1	1	3	90	0.00	29.782 
16:50	40.1	40.1	40.1	96	39.1	0	2	90	0.00	29.782 
16:55	40.1	40.1	40.1	96	39.1	1	4	90	0.00	29.782 
17:00	40.1	40.1	40.1	96	39.1	1	4	90	0.00	29.773 
17:05	40.2	40.2	40.2	96	39.2	2	4	90	0.00	29.773 
17:10	40.2	40.2	40.2	96	39.2	2	5	90	0.00	29.773 
17:15	40.2	40.2	40.2	96	39.2	2	5	90	0.00	29.758 
17:20	40.3	40.3	40.3	96	39.3	1	3	90	0.00	29.758 
17:25	40.3	40.3	40.3	96	39.3	0	2	90	0.00	29.758 
17:30	40.3	40.3	40.3	96	39.3	0	2	90	0.00	29.774 
17:35	40.5	40.5	40.5	96	39.5	0	1	90	0.00	29.774 
17:40	40.5	40.5	40.5	96	39.5	0	0	---	0.00	29.774 
17:45	40.5	40.5	40.5	96	39.5	0	2	90	0.00	29.767 
17:50	40.6	40.6	40.6	96	39.5	0	2	90	0.00	29.767 
17:55	40.6	40.6	40.6	96	39.5	0	3	90	0.00	29.767 
18:00	40.6	40.6	40.6	96	39.5	0	0	---	0.00	29.765 
18:05	40.6	40.6	40.6	96	39.5	0	0	---	0.00	29.765 
18:10	40.6	40.6	40.6	96	39.5	0	1	90	0.00	29.765 
18:15	40.8	40.8	40.8	96	39.7	0	0	---	0.00	29.755 
18:20	40.8	40.8	40.8	96	39.7	0	0	---	0.00	29.755 
18:25	40.9	40.9	40.9	96	39.8	0	2	90	0.00	29.755 
18:30	40.9	40.9	40.9	96	39.8	0	0	---	0.00	29.749 
18:35	40.9	40.9	40.9	96	39.8	0	1	90	0.00	29.749 
18:40	41.1	41.1	41.1	96	40.0	0	1	90	0.01	29.749 
18:45	41.1	41.1	41.1	96	40.0	0	0	---	0.00	29.757 
18:50	41.1	41.1	41.1	96	40.0	0	0	---	0.00	29.757 
18:55	41.1	41.1	41.1	96	40.0	0	1	90	0.00	29.757 
19:00	41.1	41.1	41.1	96	40.0	0	0	---	0.00	29.748 
19:05	41.2	41.2	41.2	96	40.1	0	0	---	0.00	29.748 
19:10	41.2	41.2	41.2	96	40.1	0	0	---	0.00	29.748 
19:15	41.2	41.2	41.2	96	40.1	0	0	---	0.00	29.740 
19:20	41.2	41.2	41.2	96	40.1	0	1	90	0.00	29.740 
19:25	41.2	41.2	41.2	96	40.1	0	0	---	0.00	29.740 
19:30	41.2	41.2	41.2	96	40.1	0	1	90	0.00	29.741 
19:35	41.2	41.2	41.2	96	40.1	0	1	90	0.00	29.741 
19:40	41.2	41.2	41.2	96	40.1	0	0	---	0.00	29.741 
19:45	41.2	41.2	41.2	96	40.1	0	2	90	0.00	29.726 
19:50	41.2	41.2	41.2	96	40.1	0	1	90	0.00	29.726 
19:55	41.2	41.2	41.2	96	40.1	0	1	90	0.00	29.726 
20:00	41.2	41.2	41.2	96	40.1	0	1	90	0.00	29.730 
20:05	41.2	41.2	41.2	96	40.1	0	3	90	0.00	29.730 
20:10	41.2	41.2	41.2	96	40.1	0	3	90	0.00	29.730 
20:15	41.2	41.2	41.2	96	40.1	1	3	90	0.00	29.723 
20:20	41.2	41.2	41.2	96	40.1	0	2	90	0.00	29.723 
20:25	41.2	41.2	41.2	96	40.1	0	1	90	0.00	29.723 
20:30	41.2	41.2	41.2	96	40.1	0	2	90	0.00	29.714 
20:35	41.2	41.2	41.2	96	40.1	0	0	---	0.00	29.714 
20:40	41.2	41.2	41.2	96	40.1	0	0	---	0.00	29.714 
20:45	41.2	41.2	41.2	96	40.1	0	0	---	0.00	29.726 
20:50	41.2	41.2	41.2	96	40.1	0	0	---	0.00	29.726 
20:55	41.3	41.3	41.3	96	40.2	0	0	---	0.00	29.726 
21:00	41.3	41.3	41.3	96	40.2	0	0	---	0.00	29.705 
21:05	41.5	41.5	41.5	97	40.7	0	1	90	0.00	29.705 
21:10	41.3	41.3	41.3	97	40.5	0	0	---	0.00	29.705 
21:15	41.3	41.3	41.3	97	40.5	0	1	90	0.00	29.702 
21:20	41.3	41.3	41.3	97	40.5	0	0	---	0.00	29.702 
21:25	41.3	41.3	41.3	97	40.5	0	0	---	0.00	29.702 
21:30	41.5	41.5	41.5	97	40.7	0	0	---	0.00	29.694 
21:35	41.5	41.5	41.5	97	40.7	0	0	---	0.00	29.694 
21:40	41.5	41.5	41.5	97	40.7	0	0	---	0.00	29.694 
21:45	41.5	41.5	41.5	97	40.7	0	0	---	0.00	29.696 
21:50	41.6	41.6	41.6	97	40.8	0	0	---	0.00	29.696 
21:55	41.6	41.6	41.6	97	40.8	0	0	---	0.00	29.696 
22:00	41.6	41.6	41.6	97	40.8	0	0	---	0.00	29.693 
22:05	41.6	41.6	41.6	97	40.8	0	0	---	0.01	29.693 
22:10	41.8	41.8	41.8	97	41.0	0	0	---	0.00	29.693 
22:15	41.9	41.9	41.9	97	41.1	0	0	---	0.00	29.680 
22:20	41.9	41.9	41.9	97	41.1	0	0	---	0.00	29.680 
22:25	41.9	41.9	41.9	97	41.1	0	0	---	0.01	29.680 
22:30	41.9	41.9	41.9	97	41.1	0	0	---	0.00	29.661 
22:35	41.9	41.9	41.9	97	41.1	0	0	---	0.00	29.661 
22:40	41.9	41.9	41.9	97	41.1	0	0	---	0.00	29.661 
22:45	41.9	41.9	41.9	97	41.1	0	0	---	0.00	29.663 
22:50	41.9	41.9	41.9	97	41.1	0	0	---	0.00	29.663 
22:55	41.9	41.9	41.9	97	41.1	0	0	---	0.00	29.663 
23:00	42.1	42.1	42.1	97	41.3	0	0	---	0.00	29.663 
23:05	42.1	42.1	42.1	97	41.3	0	0	---	0.00	29.663 
23:10	42.2	42.2	42.2	97	41.4	0	0	---	0.00	29.663 
23:15	42.2	42.2	42.2	97	41.4	0	0	---	0.00	29.672 
23:20	42.3	42.3	42.3	97	41.5	0	0	---	0.00	29.672 
23:25	42.5	42.5	42.5	97	41.7	0	0	---	0.00	29.672 
23:30	42.6	42.6	42.6	97	41.8	0	0	---	0.00	29.668 
23:35	42.9	42.9	42.9	97	42.1	0	1	90	0.00	29.668 
23:40	43.2	43.2	43.2	97	42.4	0	2	90	0.00	29.668 
23:45	43.5	43.5	43.5	97	42.7	0	1	90	0.00	29.675 
23:50	43.8	43.8	43.8	97	43.0	0	1	90	0.00	29.675 
23:55	44.2	44.2	44.2	97	43.4	0	2	90	0.00	29.675 

CoCoRaHS
IN-AL-39
A2 Web Hosting
Creative Commons License
GoDaddy
search engine by freefind advanced

loaded 2018-11-15 05:53:24 • last modified 2010-11-18 10:43:29
Privacy PolicyDisclaimer
• wx.awcolley.com is powered by PmWiki v.2002016 •
• all content (unless otherwise noted) © 2018 A W Colley